Terminal Aerodrome Forecast
Issued by NWS

Home | Current Version | Previous Version | Text Only | Print | Product List | Glossary On
Versions: 1 2 3 4 5 6 7 8 9 10 11 12 13 14 15 16 17 18 19
045
FTUS46 KPDT 301120
TAFDLS
TAF
KDLS 301120Z 3012/3112 33012G22KT P6SM SKC
     FM302000 31020G30KT P6SM SKC
     FM310600 30010G20KT P6SM SKC=

USA.gov is the U.S. government's official web portal to all federal, state and local government web resources and services.